Acton, IN (46259)

9:48 PM EDT on March 27, 2015 (GMT -0400)
Wildcat Park-SE Side | | Change Station
CLOSE
Current Station
Personal Weather Station
Location: Indianapolis, IN
Elevation: 850 ft
Nearby Weather Stations

Elev 850 ft 39.69 °N, 86.03 °W | Updated 2 seconds ago

Overcast
Overcast
26.3 °F
Feels Like 17 °F
N
9.0
Wind Variable Wind from NNW
Gusts 16.0 mph

Today
High -- | Low -- °F
--% Chance of Precip.
Yesterday
High -- | Low -- °F
Precip. -- in
7:36 AM 8:02 PM
First Quarter, 57% visible
Pressure 30.13 in
Visibility 10.0 miles
Clouds Overcast 4800 ft
Windchill 17 °F
Dew Point 11 °F
Humidity 52%
Rainfall 0.00 in
Snow Depth Not available.
UV 0 out of 12
Pollen 5.80 out of 12
Air Quality Not available.
Flu Activity Not available.
METAR KGEZ 280053Z AUTO 34012KT 10SM OVC048 M02/M10 A3010 RMK AO2 SLP201 T10171100

More Conditions Fewer Conditions

Pressure 30.13 in
Visibility 10.0 miles
Clouds Overcast 4800 ft
Windchill 17 °F
Dew Point 11 °F
Humidity 52%
Rainfall 0.00 in
Snow Depth Not available.
UV 0 out of 12
Pollen 5.80 out of 12
Air Quality Not available.
Flu Activity Not available.
METAR KGEZ 280053Z AUTO 34012KT 10SM OVC048 M02/M10 A3010 RMK AO2 SLP201 T10171100

More Conditions Fewer Conditions

10-Day Weather Forecast

Almanac

Astronomy

Mar. 27, 2015 Rise Set
Actual Time
Civil Twilight
Nautical Twilight
Astronomical Twilight
Moon
Length of Visible Light
Length of Day
Tomorrow will be .
, % of the Moon is Illuminated

Today's Extremes

State Highs State Lows

Community

WunderPhotos

Upload Photos

1,808,911 photos uploaded!

WunderBlogs® & News

Nearby

Air Quality

  Air Quality AQ Index Pollutant
Not available.

Snow Depth

Station Depth Elevation

Earthquake Activity

City Distance Mag. Time & Date
Minimum magnitude displayed is 2.5.

Coastal Water Temperatures

Place Temperature

Stations

Nearby Weather Stations

Station Location Temp. Windchill Dew Point Humidity Wind Precip. Elev Updated Type